Time;durP1;ratioP1;P1;durP2;ratioP2;P2;SDS_P1;SDS_P2;PMS_P1;PMS_P2;Temp;Humidity;BMP_temperature;BMP_pressure;BME280_temperature;BME280_humidity;BME280_pressure;Samples;Min_cycle;Max_cycle;Signal;HPM_P1;HPM_P2
2022/01/10 00:00:51;;;;;;;12.70;7.47;;;9.20;84.40;;;;;;4958813;28;20033;-79
2022/01/10 00:03:18;;;;;;;12.07;7.25;;;9.10;84.40;;;;;;4959309;28;20081;-79
2022/01/10 00:05:43;;;;;;;13.23;8.25;;;9.10;84.30;;;;;;4959369;28;20085;-79
2022/01/10 00:08:11;;;;;;;16.25;7.32;;;9.20;84.50;;;;;;4958957;28;20437;-80
2022/01/10 00:10:36;;;;;;;11.88;6.90;;;9.10;84.40;;;;;;4958893;28;20478;-79
2022/01/10 00:13:03;;;;;;;13.13;6.82;;;9.20;84.40;;;;;;4959018;28;20034;-79
2022/01/10 00:15:28;;;;;;;12.75;7.30;;;9.10;84.40;;;;;;4958488;28;20034;-79
2022/01/10 00:17:54;;;;;;;11.27;7.28;;;9.10;84.30;;;;;;4958733;28;20027;-80
2022/01/10 00:20:19;;;;;;;14.15;7.28;;;9.10;84.30;;;;;;4958537;28;20030;-80
2022/01/10 00:22:48;;;;;;;12.13;6.97;;;9.10;84.80;;;;;;4958415;28;20078;-79
2022/01/10 00:25:16;;;;;;;12.15;7.38;;;9.10;84.30;;;;;;4958379;28;20037;-79
2022/01/10 00:27:42;;;;;;;12.38;7.30;;;9.10;84.30;;;;;;4958308;28;20481;-79
2022/01/10 00:30:10;;;;;;;12.10;7.30;;;9.10;84.30;;;;;;4958263;28;20086;-79
2022/01/10 00:32:36;;;;;;;12.45;7.10;;;9.10;84.30;;;;;;4958330;28;20486;-80
2022/01/10 00:35:03;;;;;;;11.80;7.25;;;9.20;84.30;;;;;;4975563;28;20035;-79
2022/01/10 00:37:28;;;;;;;13.45;6.95;;;9.10;84.40;;;;;;4958367;28;20029;-79
2022/01/10 00:39:54;;;;;;;13.27;7.90;;;9.10;84.40;;;;;;4958457;28;20390;-79
2022/01/10 00:42:19;;;;;;;12.82;8.23;;;9.20;84.40;;;;;;4957939;28;20029;-80
2022/01/10 00:44:50;;;;;;;11.38;7.25;;;9.20;84.50;;;;;;4975524;28;20038;-79
2022/01/10 00:47:16;;;;;;;12.48;7.75;;;9.20;84.40;;;;;;4958381;28;20023;-79
2022/01/10 00:49:42;;;;;;;14.85;7.32;;;9.20;84.30;;;;;;4958011;28;20037;-79
2022/01/10 00:52:08;;;;;;;15.32;8.10;;;9.20;84.30;;;;;;4957980;28;20478;-79
2022/01/10 00:54:33;;;;;;;12.20;7.30;;;9.20;84.40;;;;;;4958089;28;20077;-80
2022/01/10 00:56:59;;;;;;;15.30;7.60;;;9.20;84.40;;;;;;4958150;28;20441;-79
2022/01/10 00:59:24;;;;;;;12.95;7.78;;;9.20;84.40;;;;;;4957943;28;20026;-79
2022/01/10 01:01:50;;;;;;;12.25;7.47;;;9.10;85.00;;;;;;4957659;28;20026;-79
2022/01/10 01:04:16;;;;;;;14.32;7.65;;;9.20;84.40;;;;;;4958188;28;20402;-79
2022/01/10 01:06:42;;;;;;;14.77;7.18;;;9.20;84.40;;;;;;4958034;28;20027;-79
2022/01/10 01:09:10;;;;;;;13.07;7.47;;;9.20;84.40;;;;;;4957737;28;20038;-80
2022/01/10 01:14:10;;;;;;;12.50;7.45;;;9.10;84.40;;;;;;4975439;28;20031;-79
2022/01/10 01:24:26;;;;;;;13.30;7.10;;;9.10;84.50;;;;;;4975348;28;20038;-80
2022/01/10 01:26:53;;;;;;;14.48;7.57;;;9.10;84.40;;;;;;4957538;28;20030;-80
2022/01/10 01:29:22;;;;;;;13.60;7.55;;;9.20;84.40;;;;;;4957567;28;20034;-79
2022/01/10 01:31:48;;;;;;;15.27;7.90;;;9.10;84.30;;;;;;4958007;28;20026;-80
2022/01/10 01:34:15;;;;;;;15.68;7.63;;;9.10;84.30;;;;;;4958148;28;20506;-79
2022/01/10 01:36:45;;;;;;;13.18;7.72;;;9.10;84.40;;;;;;4958084;28;20058;-79
2022/01/10 01:39:19;;;;;;;11.85;7.10;;;9.10;84.30;;;;;;4975734;28;20105;-80
2022/01/10 01:41:45;;;;;;;12.10;7.40;;;9.10;84.40;;;;;;4957513;28;20023;-79
2022/01/10 01:44:11;;;;;;;12.60;7.70;;;9.10;84.40;;;;;;4975021;28;20512;-77
2022/01/10 01:46:38;;;;;;;13.30;7.40;;;9.10;84.40;;;;;;4957808;28;20022;-79
2022/01/10 01:49:05;;;;;;;13.82;7.75;;;9.10;84.30;;;;;;4975021;28;20082;-79
2022/01/10 01:51:31;;;;;;;13.50;7.75;;;9.10;84.30;;;;;;4957286;28;20443;-80
2022/01/10 01:53:56;;;;;;;13.45;7.70;;;9.10;84.40;;;;;;4974914;28;20027;-80
2022/01/10 01:56:23;;;;;;;14.07;8.00;;;9.10;84.40;;;;;;4957605;28;20023;-79
2022/01/10 01:58:52;;;;;;;15.15;7.82;;;9.10;84.40;;;;;;4957741;28;20082;-79
2022/01/10 02:01:18;;;;;;;14.13;7.88;;;9.10;84.40;;;;;;4957271;28;20031;-79
2022/01/10 02:03:45;;;;;;;14.25;7.70;;;9.10;84.40;;;;;;4957723;28;20030;-81
2022/01/10 02:06:11;;;;;;;13.43;7.65;;;9.10;84.40;;;;;;4957762;28;20027;-79
2022/01/10 02:08:38;;;;;;;13.00;7.22;;;9.20;84.40;;;;;;4957574;28;20039;-79
2022/01/10 02:11:06;;;;;;;14.15;7.63;;;9.20;84.40;;;;;;4975274;28;20066;-79
2022/01/10 02:13:32;;;;;;;13.10;7.53;;;9.20;84.30;;;;;;4975053;28;20027;-81
2022/01/10 02:16:01;;;;;;;13.93;7.82;;;9.20;84.30;;;;;;4974900;28;20027;-80
2022/01/10 02:18:27;;;;;;;13.15;7.65;;;9.20;84.20;;;;;;4957782;28;20549;-79
2022/01/10 02:20:53;;;;;;;12.95;7.25;;;9.10;84.20;;;;;;4957504;28;20030;-78
2022/01/10 02:23:19;;;;;;;12.48;7.43;;;9.20;84.80;;;;;;4957387;28;20029;-80
2022/01/10 02:25:46;;;;;;;14.20;7.53;;;9.10;84.30;;;;;;4957850;28;20034;-80
2022/01/10 02:28:12;;;;;;;14.55;7.57;;;9.20;84.50;;;;;;4957002;28;20050;-79
2022/01/10 02:30:39;;;;;;;13.48;7.88;;;9.10;84.50;;;;;;4974325;28;20052;-79
2022/01/10 02:33:05;;;;;;;14.35;7.35;;;9.20;84.50;;;;;;4956795;28;20023;-80
2022/01/10 02:35:41;;;;;;;12.43;7.70;;;9.20;84.50;;;;;;4957158;28;20478;-79
2022/01/10 02:38:07;;;;;;;14.52;7.28;;;9.20;84.50;;;;;;4958021;28;20035;-79
2022/01/10 02:40:34;;;;;;;11.95;7.38;;;9.10;84.50;;;;;;4960536;28;20038;-79
2022/01/10 02:43:01;;;;;;;11.73;7.10;;;9.10;84.60;;;;;;4960369;28;20023;-80
2022/01/10 02:45:27;;;;;;;12.05;7.32;;;9.10;84.50;;;;;;4960531;28;20034;-79
2022/01/10 02:47:53;;;;;;;12.18;7.40;;;9.20;84.60;;;;;;4960100;28;20026;-80
2022/01/10 02:50:21;;;;;;;12.95;7.70;;;9.10;84.50;;;;;;4960613;28;20086;-80
2022/01/10 02:52:48;;;;;;;14.10;7.68;;;9.10;84.50;;;;;;4960261;28;20018;-79
2022/01/10 02:55:14;;;;;;;13.18;7.63;;;9.10;84.60;;;;;;4960068;28;20019;-80
2022/01/10 02:57:40;;;;;;;13.32;7.45;;;9.20;84.70;;;;;;4960185;28;20026;-80
2022/01/10 03:00:13;;;;;;;14.57;7.65;;;9.10;84.60;;;;;;4960007;28;20051;-79
2022/01/10 03:02:41;;;;;;;13.73;7.80;;;9.10;84.60;;;;;;4959837;28;20031;-80
2022/01/10 03:05:07;;;;;;;14.25;7.50;;;9.20;84.70;;;;;;4959782;28;20034;-79
2022/01/10 03:07:33;;;;;;;12.45;7.43;;;9.20;85.20;;;;;;4959914;28;20027;-79
2022/01/10 03:09:58;;;;;;;11.77;7.07;;;9.20;84.70;;;;;;4960207;28;20045;-79
2022/01/10 03:12:25;;;;;;;13.55;7.88;;;9.20;84.80;;;;;;4959831;28;20023;-80
2022/01/10 03:14:50;;;;;;;14.07;7.60;;;9.10;84.80;;;;;;4977632;23;20034;-71
2022/01/10 03:17:16;;;;;;;11.77;7.03;;;9.20;84.90;;;;;;4972759;28;20038;-73
2022/01/10 03:19:43;;;;;;;11.05;7.07;;;9.10;84.90;;;;;;4975772;28;20027;-73
2022/01/10 03:22:09;;;;;;;12.40;7.30;;;9.10;85.00;;;;;;4957984;28;20488;-73
2022/01/10 03:24:35;;;;;;;13.32;7.40;;;9.10;85.00;;;;;;4958188;28;20030;-73
2022/01/10 03:27:01;;;;;;;12.13;7.70;;;9.10;85.00;;;;;;4975252;28;20023;-73
2022/01/10 03:29:27;;;;;;;13.20;7.97;;;9.10;85.00;;;;;;4957886;28;20608;-73
2022/01/10 03:31:53;;;;;;;12.93;7.50;;;9.10;85.00;;;;;;4975096;28;20367;-73
2022/01/10 03:34:18;;;;;;;13.07;8.32;;;9.10;85.00;;;;;;4957965;28;20023;-73
2022/01/10 03:36:44;;;;;;;12.13;7.70;;;9.10;85.00;;;;;;4957730;28;20509;-73
2022/01/10 03:39:12;;;;;;;13.20;7.10;;;9.10;85.00;;;;;;4975221;28;20557;-73
2022/01/10 03:41:38;;;;;;;12.13;7.70;;;9.10;85.00;;;;;;4957494;28;20117;-74
2022/01/10 03:44:04;;;;;;;12.98;7.80;;;9.20;85.10;;;;;;4957715;28;20037;-73
2022/01/10 03:46:32;;;;;;;11.23;7.35;;;9.10;85.00;;;;;;4956645;28;20037;-73
2022/01/10 03:48:59;;;;;;;12.18;7.32;;;9.10;85.00;;;;;;4957097;28;20473;-73
2022/01/10 03:51:24;;;;;;;12.80;7.20;;;9.10;85.00;;;;;;4984954;28;20018;-73
2022/01/10 03:53:50;;;;;;;11.48;7.03;;;9.10;85.00;;;;;;4994195;28;20033;-73
2022/01/10 03:56:16;;;;;;;13.57;7.00;;;9.10;85.00;;;;;;4994227;28;20027;-73
2022/01/10 03:58:41;;;;;;;12.57;7.57;;;9.10;85.00;;;;;;4994243;28;20026;-73
2022/01/10 04:01:08;;;;;;;12.43;7.45;;;9.10;84.90;;;;;;4993834;28;20401;-73
2022/01/10 04:03:37;;;;;;;14.82;7.45;;;9.10;84.90;;;;;;4976771;28;20041;-73
2022/01/10 04:06:02;;;;;;;11.98;7.88;;;9.10;84.90;;;;;;4976601;28;20026;-73
2022/01/10 04:08:28;;;;;;;14.38;8.60;;;9.10;84.90;;;;;;4993794;28;20448;-73
2022/01/10 04:10:54;;;;;;;13.45;7.75;;;9.10;84.80;;;;;;4976380;28;20034;-73
2022/01/10 04:13:19;;;;;;;14.10;7.82;;;9.10;84.80;;;;;;4976494;28;20023;-73
2022/01/10 04:15:45;;;;;;;13.52;7.90;;;9.10;84.90;;;;;;4976370;28;20034;-73
2022/01/10 04:18:10;;;;;;;15.40;8.20;;;9.20;85.10;;;;;;4993932;28;20069;-73
2022/01/10 04:20:36;;;;;;;14.27;7.80;;;9.10;84.90;;;;;;4993570;28;20033;-73
2022/01/10 04:23:02;;;;;;;12.35;7.90;;;9.20;84.90;;;;;;4976206;28;20022;-74
2022/01/10 04:25:28;;;;;;;13.45;7.97;;;9.20;84.90;;;;;;4993778;28;20410;-74
2022/01/10 04:27:53;;;;;;;13.02;7.93;;;9.10;84.80;;;;;;4993715;28;20049;-73
2022/01/10 04:30:19;;;;;;;13.57;8.02;;;9.20;84.80;;;;;;4993676;28;20485;-72
2022/01/10 04:32:45;;;;;;;12.75;7.88;;;9.10;84.60;;;;;;4993339;28;20022;-73
2022/01/10 04:35:11;;;;;;;15.30;7.95;;;9.20;84.70;;;;;;4993489;28;20076;-73
2022/01/10 04:37:37;;;;;;;13.93;7.40;;;9.20;84.70;;;;;;4976076;28;20026;-73
2022/01/10 04:40:04;;;;;;;15.48;8.73;;;9.10;84.70;;;;;;4993384;28;20025;-73
2022/01/10 04:42:29;;;;;;;13.05;8.10;;;9.20;84.60;;;;;;4992949;28;20161;-73
2022/01/10 04:44:55;;;;;;;15.00;7.68;;;9.10;84.60;;;;;;4975992;28;20057;-74
2022/01/10 04:47:21;;;;;;;13.00;7.38;;;9.20;84.70;;;;;;4976002;28;20117;-73
2022/01/10 04:52:32;;;;;;;13.13;8.52;;;9.10;84.80;;;;;;4993340;28;20061;-73
2022/01/10 04:54:59;;;;;;;13.10;7.90;;;9.10;84.70;;;;;;4993113;28;20019;-73
2022/01/10 04:57:25;;;;;;;12.23;7.68;;;9.10;84.70;;;;;;4975745;28;20018;-73
2022/01/10 04:59:50;;;;;;;13.10;8.25;;;9.10;84.70;;;;;;4993073;28;20026;-72
2022/01/10 05:02:16;;;;;;;14.93;8.07;;;9.10;84.70;;;;;;4991837;28;20026;-73
2022/01/10 05:04:42;;;;;;;13.48;8.07;;;9.10;84.70;;;;;;4975364;28;20037;-73
2022/01/10 05:07:08;;;;;;;14.55;7.97;;;9.20;84.80;;;;;;4975665;28;20030;-73
2022/01/10 05:09:34;;;;;;;12.07;7.90;;;9.10;84.70;;;;;;4992946;28;20033;-73
2022/01/10 05:12:00;;;;;;;16.40;8.23;;;9.20;84.80;;;;;;4992766;28;20039;-73
2022/01/10 05:14:25;;;;;;;13.90;8.23;;;9.20;84.70;;;;;;4992784;28;20018;-73
2022/01/10 05:16:52;;;;;;;15.57;8.20;;;9.20;84.80;;;;;;4992622;28;20033;-73
2022/01/10 05:19:18;;;;;;;12.20;7.97;;;9.20;84.80;;;;;;4975257;28;20026;-73
2022/01/10 05:21:43;;;;;;;13.85;8.25;;;9.10;84.80;;;;;;4992494;28;20023;-71
2022/01/10 05:24:09;;;;;;;13.02;8.05;;;9.10;84.80;;;;;;4992632;28;20033;-73
2022/01/10 05:26:35;;;;;;;14.00;8.18;;;9.10;84.70;;;;;;4992615;28;20165;-73
2022/01/10 05:29:01;;;;;;;13.07;7.97;;;9.20;84.90;;;;;;4992676;28;20062;-73
2022/01/10 05:31:33;;;;;;;15.52;8.60;;;9.20;84.80;;;;;;4992394;28;20045;-73
2022/01/10 05:33:59;;;;;;;13.10;8.25;;;9.20;84.80;;;;;;4992550;28;20027;-73
2022/01/10 05:36:24;;;;;;;14.10;7.88;;;9.10;84.80;;;;;;4975031;28;20038;-73
2022/01/10 05:38:50;;;;;;;12.45;7.95;;;9.10;84.90;;;;;;4975253;28;20030;-77
2022/01/10 05:41:15;;;;;;;13.60;7.93;;;9.20;85.00;;;;;;4973631;28;20038;-78
2022/01/10 05:43:41;;;;;;;13.73;8.02;;;9.20;84.90;;;;;;4971555;28;20030;-73
2022/01/10 05:46:08;;;;;;;10.90;7.40;;;9.10;84.90;;;;;;4971614;28;20432;-74
2022/01/10 05:48:35;;;;;;;12.57;8.30;;;9.10;85.10;;;;;;4956852;28;20032;-73
2022/01/10 05:51:02;;;;;;;13.63;8.45;;;9.10;85.10;;;;;;4979498;28;20109;-77
2022/01/10 05:53:28;;;;;;;13.15;7.93;;;9.20;85.10;;;;;;4989706;28;20026;-72
2022/01/10 05:55:54;;;;;;;13.55;8.30;;;9.20;85.10;;;;;;4961879;28;20027;-72
2022/01/10 05:58:20;;;;;;;14.10;8.30;;;9.10;85.20;;;;;;4970682;28;20113;-74
2022/01/10 06:00:46;;;;;;;14.30;8.80;;;9.10;85.20;;;;;;4971685;28;20122;-73
2022/01/10 06:03:12;;;;;;;15.85;8.90;;;9.20;85.30;;;;;;4970838;28;20442;-76
2022/01/10 06:05:38;;;;;;;14.98;8.13;;;9.20;85.20;;;;;;4970247;28;20124;-72
2022/01/10 06:08:06;;;;;;;12.43;8.35;;;9.10;85.20;;;;;;4971897;28;20053;-74
2022/01/10 06:10:32;;;;;;;16.75;8.73;;;9.20;85.20;;;;;;4971747;28;20037;-74
2022/01/10 06:12:59;;;;;;;15.07;9.23;;;9.20;85.20;;;;;;4990096;28;20022;-74
2022/01/10 06:15:25;;;;;;;16.05;8.75;;;9.20;85.20;;;;;;4975572;28;20046;-73
2022/01/10 06:17:50;;;;;;;14.00;8.75;;;9.10;85.10;;;;;;4992635;28;20042;-72
2022/01/10 06:20:17;;;;;;;16.88;9.23;;;9.10;84.90;;;;;;4976115;28;20109;-73
2022/01/10 06:22:44;;;;;;;15.32;8.88;;;9.10;85.00;;;;;;4992441;28;20033;-72
2022/01/10 06:25:14;;;;;;;15.82;9.93;;;9.10;85.00;;;;;;4992505;28;20532;-72
2022/01/10 06:27:39;;;;;;;17.02;10.13;;;9.10;83.70;;;;;;4974644;28;20161;-72
2022/01/10 06:30:06;;;;;;;17.75;10.00;;;9.00;83.50;;;;;;4950401;28;20319;-73
2022/01/10 06:32:32;;;;;;;20.95;10.48;;;9.00;84.10;;;;;;4972711;28;20031;-72
2022/01/10 06:34:58;;;;;;;18.00;10.18;;;9.10;84.30;;;;;;4961967;28;20061;-75
2022/01/10 06:37:27;;;;;;;14.90;9.05;;;9.10;84.60;;;;;;4992117;28;20382;-72
2022/01/10 06:39:52;;;;;;;15.55;9.57;;;9.10;84.70;;;;;;4974038;28;20073;-70
2022/01/10 06:42:18;;;;;;;15.27;9.48;;;9.10;84.80;;;;;;4974230;28;20445;-73
2022/01/10 06:44:44;;;;;;;16.95;9.70;;;9.10;84.80;;;;;;4973684;28;20118;-73
2022/01/10 06:47:10;;;;;;;15.05;9.50;;;9.10;84.90;;;;;;4991572;28;20109;-73
2022/01/10 06:49:35;;;;;;;16.33;10.45;;;9.20;84.90;;;;;;4990172;28;20034;-72
2022/01/10 06:52:01;;;;;;;14.80;9.85;;;9.20;85.00;;;;;;4979550;28;20422;-72
2022/01/10 06:54:27;;;;;;;14.73;10.07;;;9.10;85.10;;;;;;4979694;28;20409;-72
2022/01/10 06:56:53;;;;;;;17.88;9.98;;;9.20;85.10;;;;;;4962705;28;20516;-72
2022/01/10 06:59:19;;;;;;;19.92;10.52;;;9.10;85.20;;;;;;4965317;28;20037;-72
2022/01/10 07:01:45;;;;;;;16.65;10.23;;;9.20;85.20;;;;;;4980172;28;20034;-73
2022/01/10 07:04:11;;;;;;;16.92;10.38;;;9.10;85.20;;;;;;4982576;28;20034;-71
2022/01/10 07:06:36;;;;;;;16.77;10.40;;;9.20;85.20;;;;;;4982777;28;20022;-72
2022/01/10 07:09:02;;;;;;;20.05;10.77;;;9.10;85.20;;;;;;4991002;28;20037;-74
2022/01/10 07:11:28;;;;;;;16.00;10.30;;;9.20;85.20;;;;;;4972627;28;20031;-73
2022/01/10 07:13:53;;;;;;;18.35;10.73;;;9.10;85.20;;;;;;4981947;28;20101;-72
2022/01/10 07:16:19;;;;;;;14.75;9.80;;;9.10;85.20;;;;;;4962560;28;20027;-73
2022/01/10 07:18:45;;;;;;;15.52;10.43;;;9.10;85.40;;;;;;4985544;28;20421;-72
2022/01/10 07:21:11;;;;;;;15.60;10.77;;;9.10;85.40;;;;;;4987946;28;20031;-74
2022/01/10 07:23:36;;;;;;;14.82;10.75;;;9.20;85.10;;;;;;4959930;28;20023;-72
2022/01/10 07:26:02;;;;;;;15.93;10.70;;;9.10;85.10;;;;;;4962297;28;20026;-73
2022/01/10 07:28:28;;;;;;;14.85;9.98;;;9.10;85.20;;;;;;4985471;28;20065;-74
2022/01/10 07:30:54;;;;;;;14.23;10.40;;;9.20;85.10;;;;;;4975614;28;20069;-73
2022/01/10 07:33:19;;;;;;;17.08;10.82;;;9.20;85.20;;;;;;4960738;28;20056;-74
2022/01/10 07:35:45;;;;;;;16.25;10.93;;;9.10;85.00;;;;;;4959796;28;20031;-71
2022/01/10 07:38:10;;;;;;;15.25;10.07;;;9.10;85.00;;;;;;4964435;28;20022;-72
2022/01/10 07:40:36;;;;;;;15.88;10.75;;;9.10;85.10;;;;;;4963642;28;20030;-72
2022/01/10 07:43:02;;;;;;;16.05;10.60;;;9.10;85.00;;;;;;4986764;28;20057;-74
2022/01/10 07:45:28;;;;;;;15.40;10.20;;;9.20;85.00;;;;;;4973672;28;20616;-73
2022/01/10 07:47:53;;;;;;;16.27;11.65;;;9.10;85.10;;;;;;4990661;28;20489;-73
2022/01/10 07:50:19;;;;;;;18.30;12.25;;;9.20;85.10;;;;;;4990729;28;20026;-74
2022/01/10 07:52:45;;;;;;;17.67;11.80;;;9.10;84.90;;;;;;4972943;28;20034;-73
2022/01/10 07:55:10;;;;;;;18.85;11.50;;;9.10;85.10;;;;;;4973202;28;20081;-73
2022/01/10 07:57:36;;;;;;;18.27;12.15;;;9.20;85.10;;;;;;4972911;28;20047;-72
2022/01/10 08:00:05;;;;;;;17.00;11.93;;;9.10;85.10;;;;;;4970737;28;20042;-73
2022/01/10 08:02:30;;;;;;;18.75;11.38;;;9.10;85.10;;;;;;4960069;28;20026;-72
2022/01/10 08:04:56;;;;;;;16.35;12.25;;;9.10;85.10;;;;;;4978687;28;20081;-72
2022/01/10 08:07:22;;;;;;;19.67;11.88;;;9.10;85.00;;;;;;4958704;28;20114;-73
2022/01/10 08:09:47;;;;;;;19.10;11.43;;;9.10;85.10;;;;;;4978673;28;20043;-75
2022/01/10 08:12:13;;;;;;;19.52;12.82;;;9.10;85.20;;;;;;4960799;28;20038;-71
2022/01/10 08:14:38;;;;;;;18.80;12.75;;;9.20;85.10;;;;;;4963690;28;20031;-73
2022/01/10 08:17:04;;;;;;;18.67;12.23;;;9.10;85.10;;;;;;4952876;28;20035;-73
2022/01/10 08:19:33;;;;;;;19.50;12.40;;;9.10;85.20;;;;;;4970481;28;20031;-74
2022/01/10 08:22:02;;;;;;;21.02;12.43;;;9.10;85.20;;;;;;4969004;28;20061;-72
2022/01/10 08:24:28;;;;;;;19.25;12.85;;;9.10;85.30;;;;;;4953208;28;20054;-73
2022/01/10 08:26:54;;;;;;;17.67;12.38;;;9.10;85.30;;;;;;4953049;28;20039;-73
2022/01/10 08:29:20;;;;;;;17.92;11.95;;;9.10;85.20;;;;;;4953413;28;20095;-72
2022/01/10 08:31:46;;;;;;;19.67;12.82;;;9.10;85.10;;;;;;4953185;28;20122;-73
2022/01/10 08:34:12;;;;;;;16.20;11.93;;;9.10;85.20;;;;;;4970877;28;20027;-73
2022/01/10 08:36:38;;;;;;;17.73;12.30;;;9.20;85.20;;;;;;4953348;28;20033;-74
2022/01/10 08:39:06;;;;;;;20.58;13.15;;;9.10;85.10;;;;;;4970399;28;20035;-74
2022/01/10 08:41:32;;;;;;;20.05;12.60;;;9.10;85.10;;;;;;4953107;28;20030;-72
2022/01/10 08:43:57;;;;;;;17.55;11.70;;;9.10;85.20;;;;;;4970658;28;20041;-73
2022/01/10 08:46:23;;;;;;;17.88;11.98;;;9.10;85.80;;;;;;4970372;28;20118;-71
2022/01/10 08:48:50;;;;;;;18.20;12.18;;;9.10;85.20;;;;;;4971025;28;20617;-73
2022/01/10 08:51:16;;;;;;;19.10;12.88;;;9.10;85.20;;;;;;4952790;28;20034;-75
2022/01/10 08:53:41;;;;;;;17.75;12.35;;;9.10;85.20;;;;;;4952993;28;20027;-72
2022/01/10 08:56:07;;;;;;;17.67;11.85;;;9.10;85.20;;;;;;4970172;28;20106;-71
2022/01/10 08:58:33;;;;;;;17.95;11.77;;;9.10;85.10;;;;;;4953243;28;20023;-73
2022/01/10 09:01:04;;;;;;;18.67;12.13;;;9.20;85.20;;;;;;4952856;28;20041;-73
2022/01/10 09:03:30;;;;;;;17.05;12.02;;;9.20;84.90;;;;;;4970422;28;20034;-74
2022/01/10 09:05:56;;;;;;;19.73;12.02;;;9.20;84.90;;;;;;4960247;28;20387;-74
2022/01/10 09:08:26;;;;;;;18.45;12.75;;;9.10;84.70;;;;;;4951597;28;20035;-74
2022/01/10 09:10:53;;;;;;;17.98;11.95;;;9.10;84.70;;;;;;4952576;28;20027;-73
2022/01/10 09:13:19;;;;;;;16.45;11.90;;;9.10;84.70;;;;;;4953114;28;20022;-73
2022/01/10 09:15:45;;;;;;;17.67;12.15;;;9.10;84.70;;;;;;4952467;28;20831;-72
2022/01/10 09:18:11;;;;;;;18.10;11.93;;;9.20;84.70;;;;;;4970233;28;20038;-73
2022/01/10 09:20:36;;;;;;;19.67;13.07;;;9.20;84.60;;;;;;4969740;28;20041;-75
2022/01/10 09:23:02;;;;;;;17.83;12.35;;;9.20;84.50;;;;;;4951550;28;20038;-73
2022/01/10 09:25:27;;;;;;;18.88;12.38;;;9.20;84.70;;;;;;4951514;28;20031;-72
2022/01/10 09:27:53;;;;;;;18.75;12.38;;;9.10;84.80;;;;;;4956294;28;20035;-73
2022/01/10 09:30:19;;;;;;;18.90;13.05;;;9.10;84.70;;;;;;4961399;28;20851;-72
2022/01/10 09:32:45;;;;;;;19.45;12.45;;;9.10;84.60;;;;;;4962843;28;20030;-72
2022/01/10 09:35:11;;;;;;;18.63;12.77;;;9.10;84.70;;;;;;4969128;28;20102;-73
2022/01/10 09:37:36;;;;;;;18.83;13.20;;;9.10;84.70;;;;;;4969833;28;20154;-71
2022/01/10 09:40:03;;;;;;;17.95;12.07;;;9.20;84.80;;;;;;4970232;28;20034;-73
2022/01/10 09:42:28;;;;;;;16.73;12.05;;;9.20;84.80;;;;;;4969273;28;20038;-72
2022/01/10 09:44:54;;;;;;;19.98;12.35;;;9.10;84.70;;;;;;4952565;28;20027;-73
2022/01/10 09:47:19;;;;;;;16.83;11.90;;;9.10;84.70;;;;;;4952705;28;20034;-72
2022/01/10 09:49:45;;;;;;;16.40;11.90;;;9.10;84.70;;;;;;4973453;28;20119;-73
2022/01/10 09:52:12;;;;;;;17.15;12.00;;;9.10;84.70;;;;;;4973756;28;20031;-75
2022/01/10 09:54:38;;;;;;;17.13;12.13;;;9.10;84.70;;;;;;4973982;28;20033;-73
2022/01/10 09:57:04;;;;;;;17.55;12.30;;;9.10;84.70;;;;;;4973683;28;20022;-73
2022/01/10 09:59:30;;;;;;;18.05;12.02;;;9.10;84.80;;;;;;4956867;28;20034;-72
2022/01/10 10:01:56;;;;;;;16.05;11.73;;;9.10;84.80;;;;;;4973954;28;20051;-72
2022/01/10 10:04:22;;;;;;;17.65;12.35;;;9.10;84.90;;;;;;4956545;28;20537;-73
2022/01/10 10:06:48;;;;;;;16.80;12.07;;;9.20;84.80;;;;;;4956372;28;20560;-75
2022/01/10 10:09:13;;;;;;;15.40;11.48;;;9.10;84.80;;;;;;4956609;28;20425;-73
2022/01/10 10:11:50;;;;;;;16.50;11.43;;;9.20;84.70;;;;;;4973227;28;20038;-72
2022/01/10 10:14:18;;;;;;;17.15;12.10;;;9.20;84.70;;;;;;4955836;28;20490;-73
2022/01/10 10:16:52;;;;;;;16.35;11.45;;;9.20;84.70;;;;;;4956406;28;20085;-74
2022/01/10 10:19:20;;;;;;;17.85;12.20;;;9.10;84.70;;;;;;4973770;28;20027;-72
2022/01/10 10:21:47;;;;;;;16.25;12.02;;;9.20;84.80;;;;;;4973210;28;20114;-73
2022/01/10 10:24:13;;;;;;;18.15;12.40;;;9.20;84.90;;;;;;4973274;28;20031;-75
2022/01/10 10:26:39;;;;;;;19.67;12.15;;;9.20;84.80;;;;;;4956702;28;20038;-74
2022/01/10 10:29:04;;;;;;;16.17;11.40;;;9.20;84.80;;;;;;4973623;28;20358;-73
2022/01/10 10:31:32;;;;;;;17.15;11.75;;;9.10;84.80;;;;;;4973606;28;20469;-73
2022/01/10 10:34:01;;;;;;;16.23;11.98;;;9.10;84.90;;;;;;4973520;28;20034;-74
2022/01/10 10:36:29;;;;;;;18.13;12.73;;;9.10;85.00;;;;;;4972968;28;20026;-73
2022/01/10 10:38:55;;;;;;;19.38;13.57;;;9.20;85.00;;;;;;4973053;28;20038;-73
2022/01/10 10:41:22;;;;;;;15.98;12.02;;;9.10;84.90;;;;;;4955600;28;20031;-72
2022/01/10 10:43:50;;;;;;;19.50;13.07;;;9.20;85.00;;;;;;4972639;28;20090;-73
2022/01/10 10:46:17;;;;;;;17.20;11.95;;;9.20;85.00;;;;;;4973478;28;20027;-73
2022/01/10 10:48:48;;;;;;;17.38;12.10;;;9.20;85.00;;;;;;4972521;28;20031;-74
2022/01/10 10:51:14;;;;;;;20.43;12.63;;;9.20;84.90;;;;;;4954864;28;20113;-71
2022/01/10 10:53:39;;;;;;;16.55;12.02;;;9.20;85.00;;;;;;4955581;28;20460;-73
2022/01/10 10:56:06;;;;;;;18.38;12.32;;;9.20;85.00;;;;;;4973075;28;20082;-73
2022/01/10 10:58:32;;;;;;;18.55;12.35;;;9.20;85.00;;;;;;4972676;28;20106;-73
2022/01/10 11:01:00;;;;;;;18.08;12.18;;;9.20;85.00;;;;;;4972603;28;20035;-73
2022/01/10 11:03:26;;;;;;;20.55;12.15;;;9.20;85.00;;;;;;4973223;28;20027;-72
2022/01/10 11:05:57;;;;;;;18.10;12.25;;;9.20;85.00;;;;;;4955417;28;20058;-72
2022/01/10 11:08:23;;;;;;;16.27;11.98;;;9.20;85.10;;;;;;4972407;28;20023;-72
2022/01/10 11:10:48;;;;;;;17.85;12.70;;;9.20;85.10;;;;;;4955047;28;20046;-74
2022/01/10 11:13:14;;;;;;;17.45;12.68;;;9.20;85.20;;;;;;4972751;28;20030;-72
2022/01/10 11:15:41;;;;;;;18.25;11.30;;;9.20;85.30;;;;;;4955082;28;20038;-73
2022/01/10 11:18:08;;;;;;;18.80;12.45;;;9.20;85.30;;;;;;4972967;28;20030;-73
2022/01/10 11:20:42;;;;;;;17.42;12.45;;;9.20;85.30;;;;;;4972296;28;20027;-71
2022/01/10 11:23:09;;;;;;;17.17;12.48;;;9.20;85.30;;;;;;4955541;28;20030;-73
2022/01/10 11:25:36;;;;;;;16.40;12.43;;;9.20;85.40;;;;;;4955008;28;20081;-73
2022/01/10 11:28:08;;;;;;;18.50;12.23;;;9.20;85.40;;;;;;4972176;28;20054;-72
2022/01/10 11:30:36;;;;;;;19.00;13.25;;;9.30;85.50;;;;;;4955065;28;20123;-73
2022/01/10 11:33:09;;;;;;;19.55;12.68;;;9.20;85.40;;;;;;4972319;28;20023;-73
2022/01/10 11:35:43;;;;;;;17.75;12.75;;;9.20;85.30;;;;;;4954807;28;20046;-73
2022/01/10 11:38:29;;;;;;;17.00;12.20;;;9.20;85.40;;;;;;4955064;28;20031;-72
2022/01/10 11:41:02;;;;;;;18.17;12.48;;;9.30;85.40;;;;;;4954956;28;20027;-73
2022/01/10 11:43:49;;;;;;;18.70;12.52;;;9.30;85.40;;;;;;4971662;28;20106;-73
2022/01/10 11:46:23;;;;;;;17.10;12.00;;;9.30;85.40;;;;;;4972351;28;20025;-73
2022/01/10 11:48:59;;;;;;;18.67;12.85;;;9.30;85.40;;;;;;4972410;28;20525;-73
2022/01/10 11:51:37;;;;;;;18.55;12.75;;;9.30;85.30;;;;;;4954678;28;20454;-73
2022/01/10 11:54:34;;;;;;;17.00;12.27;;;9.30;85.60;;;;;;4971294;28;20521;-73
2022/01/10 11:57:09;;;;;;;23.63;13.60;;;9.30;85.20;;;;;;4971808;28;20034;-72
2022/01/10 11:59:42;;;;;;;19.52;12.18;;;9.40;85.20;;;;;;4955447;28;20027;-73
2022/01/10 12:02:11;;;;;;;21.63;12.70;;;9.40;85.10;;;;;;4952424;29;20031;-74
2022/01/10 12:04:42;;;;;;;18.95;12.45;;;9.40;85.10;;;;;;4953206;29;20027;-73
2022/01/10 12:07:11;;;;;;;17.65;12.52;;;9.30;85.10;;;;;;4935533;29;20031;-73
2022/01/10 12:09:38;;;;;;;16.95;11.93;;;9.30;85.10;;;;;;4935697;29;20035;-73
2022/01/10 12:12:05;;;;;;;17.95;12.57;;;9.40;85.20;;;;;;4952773;28;20070;-74
2022/01/10 12:14:31;;;;;;;17.48;12.57;;;9.40;85.20;;;;;;4935985;29;20042;-75
2022/01/10 12:16:59;;;;;;;20.42;12.60;;;9.30;85.20;;;;;;4952881;29;20035;-74
2022/01/10 12:19:25;;;;;;;18.90;12.82;;;9.30;85.30;;;;;;4953329;29;20055;-74
2022/01/10 12:21:51;;;;;;;17.58;12.75;;;9.30;85.30;;;;;;4951970;29;20038;-74
2022/01/10 12:24:17;;;;;;;18.88;12.55;;;9.40;85.30;;;;;;4935866;29;20034;-74
2022/01/10 12:26:43;;;;;;;16.90;12.48;;;9.40;85.30;;;;;;4952385;29;20031;-73
2022/01/10 12:29:11;;;;;;;18.88;13.07;;;9.40;85.30;;;;;;4935846;29;20494;-73
2022/01/10 12:31:38;;;;;;;17.70;12.73;;;9.40;85.30;;;;;;4935738;29;20031;-73
2022/01/10 12:34:07;;;;;;;17.40;11.52;;;9.40;85.20;;;;;;4936057;29;20027;-74
2022/01/10 12:36:35;;;;;;;18.77;12.52;;;9.50;85.20;;;;;;4933900;29;20090;-73
2022/01/10 12:39:11;;;;;;;16.92;12.20;;;9.50;84.90;;;;;;4959329;28;20106;-74
2022/01/10 12:41:37;;;;;;;17.02;11.80;;;9.50;84.90;;;;;;4953792;28;20188;-73
2022/01/10 12:44:03;;;;;;;16.40;11.45;;;9.50;84.80;;;;;;4968275;28;20038;-73
2022/01/10 12:46:32;;;;;;;18.67;12.40;;;9.60;84.80;;;;;;4952136;28;20070;-74
2022/01/10 12:49:03;;;;;;;17.02;11.68;;;9.60;84.70;;;;;;4993179;23;20066;-74
2022/01/10 12:51:34;;;;;;;18.25;11.75;;;9.60;84.60;;;;;;4972486;28;20034;-74
2022/01/10 12:54:00;;;;;;;17.42;11.52;;;9.70;84.60;;;;;;4956671;28;20019;-74